createdAt,value
2017-12-19T00:00:28.777Z,60.18
2017-12-19T00:02:55.056Z,60.68
2017-12-19T00:05:21.376Z,60.86
2017-12-19T00:07:47.753Z,60.47
2017-12-19T00:10:13.977Z,59.62
2017-12-19T00:12:40.301Z,60.00
2017-12-19T00:15:07.311Z,60.10
2017-12-19T00:17:33.591Z,60.01
2017-12-19T00:19:59.860Z,59.55
2017-12-19T00:22:38.303Z,59.70
2017-12-19T00:25:06.087Z,59.37
2017-12-19T00:27:32.385Z,59.30
2017-12-19T00:29:58.727Z,59.85
2017-12-19T00:32:25.028Z,59.94
2017-12-19T00:34:51.329Z,59.97
2017-12-19T00:37:17.640Z,60.31
2017-12-19T00:39:44.624Z,60.33
2017-12-19T00:42:10.910Z,59.29
2017-12-19T00:44:37.914Z,59.28
2017-12-19T00:47:04.150Z,58.96
2017-12-19T00:49:30.472Z,58.96
2017-12-19T00:51:56.742Z,59.13
2017-12-19T00:54:23.763Z,59.69
2017-12-19T00:56:50.054Z,59.41
2017-12-19T00:59:17.310Z,58.86
2017-12-19T01:01:43.612Z,59.11
2017-12-19T01:04:10.636Z,58.23
2017-12-19T01:06:38.153Z,59.15
2017-12-19T01:09:04.425Z,59.33
2017-12-19T01:11:30.715Z,58.81
2017-12-19T01:13:56.958Z,59.51
2017-12-19T01:16:23.277Z,59.80
2017-12-19T01:18:49.673Z,58.82
2017-12-19T01:21:16.790Z,58.49
2017-12-19T01:23:43.078Z,58.90
2017-12-19T01:26:09.382Z,59.11
2017-12-19T01:28:36.570Z,59.39
2017-12-19T01:31:02.895Z,59.55
2017-12-19T01:33:29.160Z,59.95
2017-12-19T01:35:55.473Z,59.78
2017-12-19T01:38:21.723Z,59.96
2017-12-19T01:40:48.025Z,59.70
2017-12-19T01:43:14.277Z,59.75
2017-12-19T01:45:40.545Z,59.90
2017-12-19T01:48:07.552Z,59.95
2017-12-19T01:50:33.870Z,60.31
2017-12-19T01:53:00.244Z,60.60
2017-12-19T01:55:27.248Z,61.01
2017-12-19T01:57:53.551Z,61.13
2017-12-19T02:00:19.794Z,60.80
2017-12-19T02:02:46.121Z,61.39
2017-12-19T02:05:12.492Z,61.20
2017-12-19T02:07:46.603Z,61.37
2017-12-19T02:10:12.878Z,61.10
2017-12-19T02:12:39.131Z,61.20
2017-12-19T02:15:05.445Z,61.35
2017-12-19T02:17:31.746Z,61.40
2017-12-19T02:19:58.036Z,61.70
2017-12-19T02:22:24.342Z,61.95
2017-12-19T02:24:50.593Z,62.45
2017-12-19T02:27:16.856Z,62.49
2017-12-19T02:29:44.644Z,62.60
2017-12-19T02:32:11.675Z,62.11
2017-12-19T02:34:37.968Z,62.09
2017-12-19T02:37:04.231Z,61.99
2017-12-19T02:39:30.541Z,61.44
2017-12-19T02:41:56.839Z,62.08
2017-12-19T02:44:23.207Z,61.78
2017-12-19T02:46:49.506Z,60.70
2017-12-19T02:49:15.858Z,61.32
2017-12-19T02:51:42.232Z,61.18
2017-12-19T02:54:10.236Z,61.57
2017-12-19T02:56:36.537Z,61.53
2017-12-19T02:59:03.561Z,61.97
2017-12-19T03:01:29.847Z,61.78
2017-12-19T03:03:56.096Z,61.56
2017-12-19T03:06:22.374Z,61.33
2017-12-19T03:08:49.376Z,61.44
2017-12-19T03:11:15.704Z,60.87
2017-12-19T03:13:42.030Z,60.99
2017-12-19T03:16:08.394Z,61.08
2017-12-19T03:18:34.672Z,61.15
2017-12-19T03:21:00.948Z,61.38
2017-12-19T03:23:27.269Z,62.10
2017-12-19T03:25:53.527Z,62.14
2017-12-19T03:28:20.494Z,61.60
2017-12-19T03:30:46.787Z,61.80
2017-12-19T03:33:13.104Z,62.21
2017-12-19T03:35:39.370Z,62.34
2017-12-19T03:38:07.429Z,62.06
2017-12-19T03:40:34.086Z,62.37
2017-12-19T03:43:01.089Z,61.97
2017-12-19T03:45:27.432Z,61.81
2017-12-19T03:47:53.691Z,62.35
2017-12-19T03:50:20.723Z,62.20
2017-12-19T03:52:47.742Z,62.95
2017-12-19T03:55:14.081Z,62.35
2017-12-19T03:57:40.360Z,62.01
2017-12-19T04:00:06.674Z,61.44
2017-12-19T04:02:33.698Z,61.60
2017-12-19T04:05:00.028Z,61.89
2017-12-19T04:07:26.378Z,61.65
2017-12-19T04:09:52.659Z,61.49
2017-12-19T04:12:19.104Z,61.82
2017-12-19T04:14:45.340Z,62.09
2017-12-19T04:17:11.620Z,61.98
2017-12-19T04:22:04.078Z,59.93
2017-12-19T04:24:30.360Z,60.21
2017-12-19T04:26:56.621Z,60.39
2017-12-19T04:29:22.998Z,61.15
2017-12-19T04:31:49.268Z,61.20
2017-12-19T04:34:15.584Z,61.52
2017-12-19T04:36:41.876Z,62.01
2017-12-19T04:39:08.332Z,62.59
2017-12-19T04:41:34.633Z,62.61
2017-12-19T04:44:00.887Z,62.33
2017-12-19T04:46:27.261Z,62.62
2017-12-19T04:48:53.497Z,62.65
2017-12-19T04:51:19.819Z,62.96
2017-12-19T04:53:46.135Z,62.84
2017-12-19T04:56:12.404Z,63.05
2017-12-19T04:58:39.463Z,63.26
2017-12-19T05:01:05.766Z,63.32
2017-12-19T05:03:32.061Z,63.75
2017-12-19T05:05:58.358Z,63.04
2017-12-19T05:08:24.655Z,62.89
2017-12-19T05:10:50.892Z,63.46
2017-12-19T05:13:17.950Z,63.44
2017-12-19T05:15:44.987Z,63.00
2017-12-19T05:18:12.041Z,62.91
2017-12-19T05:20:38.372Z,62.85
2017-12-19T05:23:05.452Z,63.25
2017-12-19T05:25:31.730Z,63.23
2017-12-19T05:27:58.014Z,63.40
2017-12-19T05:30:24.314Z,63.49
2017-12-19T05:32:51.307Z,64.17
2017-12-19T05:35:17.754Z,64.19
2017-12-19T05:37:44.275Z,64.22
2017-12-19T05:40:10.565Z,63.88
2017-12-19T05:42:37.707Z,63.33
2017-12-19T05:45:04.942Z,62.83
2017-12-19T05:47:31.399Z,62.31
2017-12-19T05:49:58.475Z,62.42
2017-12-19T05:52:24.797Z,63.04
2017-12-19T05:54:51.161Z,63.89
2017-12-19T05:57:17.427Z,63.92
2017-12-19T05:59:44.496Z,63.64
2017-12-19T06:02:10.843Z,63.46
2017-12-19T06:04:37.104Z,63.05
2017-12-19T06:07:03.373Z,62.67
2017-12-19T06:09:30.458Z,62.58
2017-12-19T06:11:56.836Z,62.73
2017-12-19T06:14:23.958Z,63.29
2017-12-19T06:16:50.285Z,63.06
2017-12-19T06:19:16.574Z,63.06
2017-12-19T06:21:42.896Z,63.47
2017-12-19T06:24:09.912Z,62.93
2017-12-19T06:26:36.173Z,62.50
2017-12-19T06:29:03.349Z,62.94
2017-12-19T06:31:29.617Z,62.45
2017-12-19T06:33:55.861Z,62.95
2017-12-19T06:36:22.119Z,63.28
2017-12-19T06:38:49.167Z,63.73
2017-12-19T06:41:15.500Z,63.73
2017-12-19T06:43:42.529Z,63.07
2017-12-19T06:46:08.838Z,62.66
2017-12-19T06:48:35.098Z,62.68
2017-12-19T06:51:02.295Z,62.84
2017-12-19T06:53:28.596Z,63.65
2017-12-19T06:55:54.889Z,63.13
2017-12-19T06:58:21.155Z,63.57
2017-12-19T07:00:47.461Z,62.64
2017-12-19T07:03:14.508Z,63.10
2017-12-19T07:05:40.796Z,62.79
2017-12-19T07:08:07.052Z,62.77
2017-12-19T07:10:33.320Z,62.44
2017-12-19T07:13:00.395Z,62.53
2017-12-19T07:15:27.069Z,63.27
2017-12-19T07:17:53.372Z,63.53
2017-12-19T07:20:20.011Z,63.28
2017-12-19T07:22:46.434Z,62.08
2017-12-19T07:25:12.642Z,62.04
2017-12-19T07:27:39.085Z,61.66
2017-12-19T07:30:05.389Z,61.75
2017-12-19T07:32:32.417Z,61.96
2017-12-19T07:34:58.779Z,62.54
2017-12-19T07:37:25.897Z,62.28
2017-12-19T07:39:52.240Z,62.24
2017-12-19T07:42:18.642Z,62.71
2017-12-19T07:44:44.940Z,62.97
2017-12-19T07:47:11.239Z,63.18
2017-12-19T07:49:38.240Z,62.95
2017-12-19T07:52:04.558Z,62.75
2017-12-19T07:54:30.862Z,62.76
2017-12-19T07:56:57.922Z,62.45
2017-12-19T07:59:24.196Z,61.92
2017-12-19T08:01:50.493Z,61.32
2017-12-19T08:04:16.809Z,61.38
2017-12-19T08:06:43.143Z,61.16
2017-12-19T08:09:09.440Z,61.29
2017-12-19T08:11:35.784Z,61.40
2017-12-19T08:14:02.800Z,61.08
2017-12-19T08:16:29.147Z,61.58
2017-12-19T08:18:55.373Z,61.79
2017-12-19T08:21:21.672Z,62.12
2017-12-19T08:23:47.958Z,61.60
2017-12-19T08:26:14.987Z,61.16
2017-12-19T08:28:41.317Z,61.10
2017-12-19T08:31:07.608Z,59.89
2017-12-19T08:33:34.020Z,60.12
2017-12-19T08:36:00.277Z,60.23
2017-12-19T08:38:26.550Z,60.00
2017-12-19T08:40:52.853Z,59.44
2017-12-19T08:43:19.145Z,59.57
2017-12-19T08:45:45.393Z,59.30
2017-12-19T08:48:11.719Z,59.84
2017-12-19T08:50:37.959Z,60.88
2017-12-19T08:53:04.462Z,62.03
2017-12-19T08:55:30.771Z,61.76
2017-12-19T08:57:57.841Z,62.03
2017-12-19T09:00:24.108Z,61.61
2017-12-19T09:02:50.481Z,62.68
2017-12-19T09:05:17.727Z,62.69
2017-12-19T09:07:43.988Z,62.41
2017-12-19T09:10:10.368Z,61.33
2017-12-19T09:12:36.670Z,62.00
2017-12-19T09:15:02.986Z,62.51
2017-12-19T09:17:29.224Z,62.46
2017-12-19T09:19:55.514Z,63.07
2017-12-19T09:22:22.531Z,62.51
2017-12-19T09:24:48.760Z,62.50
2017-12-19T09:27:15.048Z,61.92
2017-12-19T09:29:41.324Z,62.04
2017-12-19T09:32:07.549Z,61.88
2017-12-19T09:34:33.829Z,62.03
2017-12-19T09:37:00.813Z,62.22
2017-12-19T09:39:34.005Z,63.63
2017-12-19T09:42:00.255Z,63.00
2017-12-19T09:44:26.574Z,62.65
2017-12-19T09:46:52.866Z,62.95
2017-12-19T09:49:19.122Z,62.84
2017-12-19T09:51:45.388Z,62.55
2017-12-19T09:54:11.656Z,62.28
2017-12-19T09:56:37.910Z,62.57
2017-12-19T09:59:04.176Z,61.61
2017-12-19T10:01:30.492Z,60.91
2017-12-19T10:03:56.756Z,60.65
2017-12-19T10:06:23.732Z,60.01
2017-12-19T10:08:50.034Z,60.54
2017-12-19T10:11:17.053Z,59.88
2017-12-19T10:13:43.329Z,61.87
2017-12-19T10:16:09.617Z,62.49
2017-12-19T10:18:35.867Z,61.72
2017-12-19T10:21:02.915Z,62.54
2017-12-19T10:23:29.924Z,62.12
2017-12-19T10:25:56.217Z,61.63
2017-12-19T10:28:22.496Z,62.86
2017-12-19T10:30:48.789Z,63.18
2017-12-19T10:33:15.119Z,64.38
2017-12-19T10:35:41.363Z,62.88
2017-12-19T10:38:07.653Z,62.14
2017-12-19T10:40:34.702Z,62.51
2017-12-19T10:43:01.729Z,62.58
2017-12-19T10:45:28.056Z,62.84
2017-12-19T10:47:54.380Z,62.64
2017-12-19T10:50:20.756Z,62.16
2017-12-19T10:52:47.075Z,62.67
2017-12-19T10:55:14.074Z,63.39
2017-12-19T10:57:40.332Z,63.78
2017-12-19T11:00:06.584Z,63.42
2017-12-19T11:02:33.634Z,62.26
2017-12-19T11:04:59.870Z,62.76
2017-12-19T11:07:26.148Z,62.08
2017-12-19T11:09:52.422Z,62.98
2017-12-19T11:12:18.745Z,63.63
2017-12-19T11:14:45.761Z,64.17
2017-12-19T11:17:12.125Z,65.00
2017-12-19T11:19:38.383Z,64.85
2017-12-19T11:22:04.608Z,64.19
2017-12-19T11:24:30.917Z,64.58
2017-12-19T11:26:57.995Z,64.73
2017-12-19T11:29:24.335Z,64.75
2017-12-19T11:31:50.609Z,64.70
2017-12-19T11:34:16.945Z,64.37
2017-12-19T11:36:43.990Z,64.43
2017-12-19T11:39:11.088Z,63.74
2017-12-19T11:41:37.456Z,64.10
2017-12-19T11:44:03.737Z,63.73
2017-12-19T11:46:29.982Z,63.32
2017-12-19T11:48:56.290Z,63.25
2017-12-19T11:51:22.596Z,63.41
2017-12-19T11:53:49.634Z,63.81
2017-12-19T11:56:16.636Z,63.73
2017-12-19T11:58:42.989Z,63.90
2017-12-19T12:01:09.316Z,65.04
2017-12-19T12:03:35.600Z,65.42
2017-12-19T12:06:02.618Z,65.11
2017-12-19T12:08:28.852Z,64.55
2017-12-19T12:10:55.144Z,64.25
2017-12-19T12:13:21.407Z,64.27
2017-12-19T12:15:47.856Z,65.26
2017-12-19T12:18:15.082Z,66.17
2017-12-19T12:20:41.313Z,66.47
2017-12-19T12:23:07.577Z,66.95
2017-12-19T12:25:34.629Z,65.93
2017-12-19T12:28:00.917Z,65.41
2017-12-19T12:30:27.161Z,65.85
2017-12-19T12:32:53.461Z,65.85
2017-12-19T12:35:19.755Z,65.48
2017-12-19T12:37:46.061Z,65.40
2017-12-19T12:40:13.052Z,66.94
2017-12-19T12:42:39.329Z,66.97
2017-12-19T12:45:05.660Z,67.06
2017-12-19T12:47:31.944Z,66.07
2017-12-19T12:49:58.201Z,65.44
2017-12-19T12:52:24.474Z,65.25
2017-12-19T12:54:51.514Z,65.36
2017-12-19T12:57:19.205Z,66.03
2017-12-19T12:59:45.486Z,66.24
2017-12-19T13:02:11.814Z,65.78
2017-12-19T13:04:38.109Z,66.17
2017-12-19T13:07:04.394Z,65.73
2017-12-19T13:09:31.446Z,66.36
2017-12-19T13:11:58.481Z,65.59
2017-12-19T13:14:25.530Z,66.23
2017-12-19T13:16:51.849Z,65.94
2017-12-19T13:19:18.193Z,65.34
2017-12-19T13:21:45.237Z,65.68
2017-12-19T13:24:12.889Z,66.28
2017-12-19T13:26:39.185Z,65.51
2017-12-19T13:29:05.466Z,65.38
2017-12-19T13:31:32.568Z,65.47
2017-12-19T13:33:58.828Z,66.10
2017-12-19T13:36:25.156Z,66.32
2017-12-19T13:38:51.458Z,65.72
2017-12-19T13:41:17.765Z,65.66
2017-12-19T13:43:44.049Z,66.02
2017-12-19T13:46:10.276Z,66.09
2017-12-19T13:48:36.532Z,65.75
2017-12-19T13:51:03.556Z,66.45
2017-12-19T13:53:29.812Z,68.29
2017-12-19T13:55:56.820Z,69.11
2017-12-19T13:58:24.037Z,69.34
2017-12-19T14:00:50.329Z,69.38
2017-12-19T14:03:16.651Z,70.02
2017-12-19T14:05:43.961Z,70.59
2017-12-19T14:08:10.237Z,70.98
2017-12-19T14:10:36.573Z,70.82
2017-12-19T14:13:02.907Z,70.96
2017-12-19T14:15:29.189Z,70.08
2017-12-19T14:17:55.539Z,70.90
2017-12-19T14:20:21.874Z,71.25
2017-12-19T14:22:48.147Z,72.02
2017-12-19T14:25:14.404Z,72.12
2017-12-19T14:27:40.678Z,72.54
2017-12-19T14:30:06.952Z,72.74
2017-12-19T14:32:33.238Z,71.81
2017-12-19T14:34:59.551Z,71.88
2017-12-19T14:37:25.882Z,71.52
2017-12-19T14:39:52.132Z,70.95
2017-12-19T14:42:18.452Z,71.07
2017-12-19T14:44:45.232Z,71.20
2017-12-19T14:47:11.510Z,70.79
2017-12-19T14:49:37.778Z,72.90
2017-12-19T14:52:04.075Z,73.06
2017-12-19T14:54:30.410Z,73.35
2017-12-19T14:56:56.675Z,72.24
2017-12-19T14:59:23.788Z,72.99
2017-12-19T15:01:50.128Z,73.12
2017-12-19T15:04:16.457Z,73.91
2017-12-19T15:06:42.739Z,74.28
2017-12-19T15:09:09.011Z,73.32
2017-12-19T15:11:35.285Z,74.88
2017-12-19T15:14:02.311Z,75.23
2017-12-19T15:16:28.617Z,75.56
2017-12-19T15:18:54.853Z,74.74
2017-12-19T15:21:21.177Z,74.93
2017-12-19T15:23:48.257Z,73.78
2017-12-19T15:26:15.277Z,73.88
2017-12-19T15:28:41.599Z,74.25
2017-12-19T15:31:07.881Z,74.30
2017-12-19T15:33:34.160Z,74.95
2017-12-19T15:36:00.463Z,75.17
2017-12-19T15:38:26.788Z,75.78
2017-12-19T15:40:53.039Z,75.36
2017-12-19T15:43:19.319Z,75.48
2017-12-19T15:45:46.418Z,75.67
2017-12-19T15:48:14.502Z,75.44
2017-12-19T15:50:40.803Z,75.13
2017-12-19T15:53:07.119Z,75.37
2017-12-19T15:55:33.377Z,75.73
2017-12-19T15:57:59.672Z,76.41
2017-12-19T16:00:26.652Z,76.56
2017-12-19T16:02:52.969Z,76.23
2017-12-19T16:05:19.261Z,76.08
2017-12-19T16:07:45.541Z,75.76
2017-12-19T16:10:11.853Z,75.91
2017-12-19T16:12:38.123Z,76.41
2017-12-19T16:15:04.549Z,77.18
2017-12-19T16:17:30.901Z,76.95
2017-12-19T16:19:57.563Z,77.50
2017-12-19T16:22:24.244Z,77.09
2017-12-19T16:24:50.534Z,77.12
2017-12-19T16:27:17.907Z,76.75
2017-12-19T16:29:44.901Z,76.96
2017-12-19T16:32:11.408Z,77.56
2017-12-19T16:34:37.738Z,76.34
2017-12-19T16:37:04.046Z,75.97
2017-12-19T16:39:30.335Z,76.50
2017-12-19T16:41:56.946Z,76.20
2017-12-19T16:44:23.263Z,77.47
2017-12-19T16:46:49.654Z,76.12
2017-12-19T16:49:17.056Z,75.27
2017-12-19T16:51:44.077Z,74.46
2017-12-19T16:54:10.850Z,75.27
2017-12-19T16:56:37.291Z,75.82
2017-12-19T16:59:03.914Z,74.96
2017-12-19T17:01:30.165Z,76.83
2017-12-19T17:03:56.737Z,76.78
2017-12-19T17:06:23.319Z,76.79
2017-12-19T17:08:49.891Z,76.56
2017-12-19T17:11:16.242Z,76.02
2017-12-19T17:13:42.643Z,76.47
2017-12-19T17:16:09.707Z,75.38
2017-12-19T17:18:36.006Z,75.48
2017-12-19T17:21:02.353Z,75.28
2017-12-19T17:23:28.636Z,75.32
2017-12-19T17:25:55.700Z,75.55
2017-12-19T17:28:22.015Z,75.42
2017-12-19T17:30:48.368Z,74.75
2017-12-19T17:33:14.759Z,74.03
2017-12-19T17:35:41.163Z,73.45
2017-12-19T17:38:07.426Z,73.36
2017-12-19T17:40:33.800Z,72.75
2017-12-19T17:43:00.073Z,73.35
2017-12-19T17:45:26.371Z,74.20
2017-12-19T17:47:52.646Z,74.68
2017-12-19T17:50:18.922Z,75.00
2017-12-19T17:52:45.316Z,74.55
2017-12-19T17:55:12.399Z,76.44
2017-12-19T17:57:38.767Z,77.24
2017-12-19T18:00:05.356Z,76.15
2017-12-19T18:02:31.692Z,76.50
2017-12-19T18:04:57.997Z,76.65
2017-12-19T18:07:25.075Z,76.84
2017-12-19T18:09:51.367Z,76.80
2017-12-19T18:12:17.613Z,76.75
2017-12-19T18:14:44.633Z,75.72
2017-12-19T18:17:11.010Z,74.53
2017-12-19T18:19:37.382Z,74.07
2017-12-19T18:22:03.701Z,74.51
2017-12-19T18:24:30.176Z,75.24
2017-12-19T18:26:56.520Z,75.56
2017-12-19T18:29:23.691Z,75.42
2017-12-19T18:31:50.220Z,75.37
2017-12-19T18:34:16.709Z,76.12
2017-12-19T18:36:43.076Z,75.46
2017-12-19T18:39:10.141Z,75.53
2017-12-19T18:41:36.784Z,76.10
2017-12-19T18:44:03.155Z,77.53
2017-12-19T18:46:29.444Z,76.73
2017-12-19T18:48:56.114Z,77.91
2017-12-19T18:51:22.458Z,77.86
2017-12-19T18:53:48.763Z,76.88
2017-12-19T18:56:15.365Z,76.38
2017-12-19T18:58:42.417Z,75.72
2017-12-19T19:01:09.461Z,74.80
2017-12-19T19:03:36.688Z,74.99
2017-12-19T19:06:03.001Z,75.45
2017-12-19T19:08:29.366Z,74.35
2017-12-19T19:10:56.537Z,74.01
2017-12-19T19:13:23.574Z,73.78
2017-12-19T19:15:50.692Z,74.91
2017-12-19T19:18:16.989Z,74.76
2017-12-19T19:20:43.412Z,74.50
2017-12-19T19:23:09.764Z,74.38
2017-12-19T19:25:36.050Z,73.85
2017-12-19T19:28:03.110Z,73.42
2017-12-19T19:30:29.486Z,73.17
2017-12-19T19:32:55.859Z,72.69
2017-12-19T19:35:24.155Z,72.43
2017-12-19T19:37:51.239Z,73.34
2017-12-19T19:40:17.611Z,72.93
2017-12-19T19:42:44.728Z,72.42
2017-12-19T19:45:11.211Z,72.29
2017-12-19T19:47:38.490Z,72.42
2017-12-19T19:50:04.851Z,72.46
2017-12-19T19:52:31.228Z,72.07
2017-12-19T19:54:58.465Z,72.18
2017-12-19T19:57:25.524Z,72.45
2017-12-19T19:59:52.622Z,72.70
2017-12-19T20:02:18.919Z,73.60
2017-12-19T20:04:45.287Z,73.68
2017-12-19T20:07:11.678Z,74.08
2017-12-19T20:09:38.078Z,73.78
2017-12-19T20:12:04.392Z,73.55
2017-12-19T20:14:30.749Z,73.76
2017-12-19T20:16:57.120Z,73.87
2017-12-19T20:19:23.528Z,73.50
2017-12-19T20:21:50.722Z,73.66
2017-12-19T20:24:17.174Z,74.61
2017-12-19T20:26:43.523Z,73.56
2017-12-19T20:29:09.956Z,73.48
2017-12-19T20:31:36.363Z,73.83
2017-12-19T20:34:02.758Z,74.25
2017-12-19T20:36:29.854Z,74.32
2017-12-19T20:38:56.254Z,73.69
2017-12-19T20:41:22.697Z,73.50
2017-12-19T20:43:49.153Z,73.34
2017-12-19T20:46:15.709Z,73.25
2017-12-19T20:48:42.088Z,73.48
2017-12-19T20:51:08.509Z,72.89
2017-12-19T20:53:34.939Z,72.68
2017-12-19T20:56:01.273Z,72.30
2017-12-19T20:58:28.367Z,72.47
2017-12-19T21:00:54.662Z,72.80
2017-12-19T21:03:21.020Z,72.90
2017-12-19T21:05:47.385Z,72.14
2017-12-19T21:08:13.642Z,71.47
2017-12-19T21:10:40.735Z,71.84
2017-12-19T21:13:06.994Z,72.00
2017-12-19T21:15:34.438Z,71.43
2017-12-19T21:18:00.789Z,72.08
2017-12-19T21:20:27.078Z,71.86
2017-12-19T21:22:53.384Z,73.27
2017-12-19T21:25:19.737Z,73.36
2017-12-19T21:27:46.104Z,73.24
2017-12-19T21:30:12.500Z,73.00
2017-12-19T21:32:38.830Z,73.11
2017-12-19T21:35:05.269Z,73.37
2017-12-19T21:37:31.637Z,73.16
2017-12-19T21:39:57.976Z,72.85
2017-12-19T21:42:25.077Z,72.48
2017-12-19T21:44:51.398Z,72.36
2017-12-19T21:47:17.685Z,72.13
2017-12-19T21:49:43.998Z,72.33
2017-12-19T21:52:10.268Z,72.51
2017-12-19T21:54:38.285Z,72.09
2017-12-19T21:57:04.548Z,72.24
2017-12-19T21:59:30.893Z,72.41
2017-12-19T22:01:58.827Z,72.56
2017-12-19T22:04:25.335Z,72.41
2017-12-19T22:06:51.694Z,71.92
2017-12-19T22:09:17.964Z,71.77
2017-12-19T22:11:45.070Z,72.33
2017-12-19T22:14:11.348Z,72.59
2017-12-19T22:16:38.380Z,72.38
2017-12-19T22:19:05.405Z,71.31
2017-12-19T22:21:31.737Z,71.00
2017-12-19T22:23:58.031Z,71.14
2017-12-19T22:26:24.356Z,70.66
2017-12-19T22:28:56.158Z,70.73
2017-12-19T22:31:16.927Z,71.26
2017-12-19T22:33:44.121Z,71.50
2017-12-19T22:36:11.205Z,71.41
2017-12-19T22:38:37.521Z,71.78
2017-12-19T22:41:04.595Z,72.09
2017-12-19T22:43:30.934Z,72.19
2017-12-19T22:45:58.012Z,72.25
2017-12-19T22:48:24.342Z,72.36
2017-12-19T22:50:51.344Z,72.17
2017-12-19T22:53:18.131Z,71.58
2017-12-19T22:55:44.523Z,71.63
2017-12-19T22:58:10.826Z,70.85
2017-12-19T23:00:37.874Z,71.37
2017-12-19T23:03:04.922Z,71.11
2017-12-19T23:05:32.032Z,70.75
2017-12-19T23:07:58.540Z,70.49
2017-12-19T23:10:25.087Z,70.50
2017-12-19T23:12:51.432Z,71.03
2017-12-19T23:15:17.701Z,70.75
2017-12-19T23:17:43.997Z,71.22
2017-12-19T23:20:10.414Z,71.28
2017-12-19T23:22:36.688Z,71.46
2017-12-19T23:25:03.804Z,71.87
2017-12-19T23:27:30.102Z,71.27
2017-12-19T23:29:56.362Z,71.81
2017-12-19T23:32:22.606Z,72.71
2017-12-19T23:34:48.936Z,72.87
2017-12-19T23:37:15.170Z,73.54
2017-12-19T23:39:48.432Z,72.82
2017-12-19T23:42:14.691Z,72.64
2017-12-19T23:44:40.944Z,72.44
2017-12-19T23:47:07.256Z,72.84
2017-12-19T23:49:33.771Z,72.56
2017-12-19T23:52:00.053Z,72.50
2017-12-19T23:54:28.113Z,73.03
2017-12-19T23:56:54.339Z,72.63
2017-12-19T23:59:20.649Z,73.07
